Time;durP1;ratioP1;P1;durP2;ratioP2;P2;SDS_P1;SDS_P2;PMS_P1;PMS_P2;Temp;Humidity;BMP_temperature;BMP_pressure;BME280_temperature;BME280_humidity;BME280_pressure;Samples;Min_cycle;Max_cycle;Signal;HPM_P1;HPM_P2
2022/04/21 00:04:02;;;;;;;10.00;4.78;;;;;;;;;;10360599;28;20059;-74
2022/04/21 00:09:03;;;;;;;11.85;5.25;;;;;;;;;;10357915;28;20087;-74
2022/04/21 00:14:05;;;;;;;14.75;5.10;;;;;;;;;;10360858;28;20069;-74
2022/04/21 00:19:09;;;;;;;9.82;4.93;;;;;;;;;;10356432;28;20476;-74
2022/04/21 00:24:12;;;;;;;9.13;4.57;;;;;;;;;;10349771;28;20041;-74
2022/04/21 00:29:17;;;;;;;10.38;4.70;;;;;;;;;;10356825;28;20489;-74
2022/04/21 00:34:18;;;;;;;9.77;4.68;;;;;;;;;;10362673;28;20482;-75
2022/04/21 00:39:20;;;;;;;10.50;4.88;;;;;;;;;;10340936;28;20065;-74
2022/04/21 00:44:30;;;;;;;10.80;4.97;;;;;;;;;;10356977;28;20042;-74
2022/04/21 00:49:33;;;;;;;8.50;4.35;;;;;;;;;;10355195;28;20060;-74
2022/04/21 00:54:35;;;;;;;9.55;4.78;;;;;;;;;;10339957;28;20769;-74
2022/04/21 00:59:43;;;;;;;11.43;5.35;;;;;;;;;;10350800;28;20379;-74
2022/04/21 01:04:48;;;;;;;8.93;4.57;;;;;;;;;;10347881;28;20053;-74
2022/04/21 01:09:54;;;;;;;10.82;4.93;;;;;;;;;;10350168;28;20046;-74
2022/04/21 01:14:59;;;;;;;9.43;4.43;;;;;;;;;;10361048;28;20050;-74
2022/04/21 01:20:03;;;;;;;11.07;5.15;;;;;;;;;;10357379;28;20129;-74
2022/04/21 01:25:07;;;;;;;10.98;4.70;;;;;;;;;;10343474;28;20549;-74
2022/04/21 01:30:12;;;;;;;10.50;4.97;;;;;;;;;;10362824;28;20557;-74
2022/04/21 01:35:13;;;;;;;11.27;5.25;;;;;;;;;;10351471;28;20045;-74
2022/04/21 01:45:35;;;;;;;9.45;4.97;;;;;;;;;;10357212;28;20414;-74
2022/04/21 01:50:40;;;;;;;10.30;4.50;;;;;;;;;;10355062;28;20046;-74
2022/04/21 01:55:46;;;;;;;12.00;4.90;;;;;;;;;;10341463;28;20050;-74
2022/04/21 02:00:50;;;;;;;14.35;5.32;;;;;;;;;;10359594;28;20068;-74
2022/04/21 02:05:52;;;;;;;11.90;5.72;;;;;;;;;;10361518;28;20129;-74
2022/04/21 02:10:53;;;;;;;12.90;5.78;;;;;;;;;;10354383;28;20216;-74
2022/04/21 02:15:57;;;;;;;11.25;5.10;;;;;;;;;;10361264;28;20038;-74
2022/04/21 02:21:00;;;;;;;13.02;5.82;;;;;;;;;;10360091;28;20521;-74
2022/04/21 02:26:01;;;;;;;12.35;5.65;;;;;;;;;;10358778;28;20038;-74
2022/04/21 02:31:02;;;;;;;11.77;5.05;;;;;;;;;;10360945;28;20046;-74
2022/04/21 02:36:04;;;;;;;12.75;5.22;;;;;;;;;;10347424;28;20048;-74
2022/04/21 02:41:13;;;;;;;11.90;5.32;;;;;;;;;;10350992;28;20395;-74
2022/04/21 02:46:17;;;;;;;10.65;5.22;;;;;;;;;;10351904;28;20050;-74
2022/04/21 02:51:19;;;;;;;11.05;5.43;;;;;;;;;;10352852;28;20089;-74
2022/04/21 03:01:46;;;;;;;12.63;5.53;;;;;;;;;;10355609;28;20036;-74
2022/04/21 03:06:48;;;;;;;10.32;5.00;;;;;;;;;;10348996;28;20037;-74
2022/04/21 03:11:54;;;;;;;11.68;5.00;;;;;;;;;;10360512;28;20571;-74
2022/04/21 03:17:09;;;;;;;10.77;5.22;;;;;;;;;;10351506;28;20675;-74
2022/04/21 03:27:34;;;;;;;10.40;4.88;;;;;;;;;;10362031;28;20056;-73
2022/04/21 03:32:36;;;;;;;14.50;5.60;;;;;;;;;;10365434;28;20040;-73
2022/04/21 03:37:38;;;;;;;10.25;5.45;;;;;;;;;;10367222;28;20045;-73
2022/04/21 03:42:40;;;;;;;11.95;6.00;;;;;;;;;;10368576;28;20053;-73
2022/04/21 03:47:41;;;;;;;11.50;5.35;;;;;;;;;;10369357;28;20048;-73
2022/04/21 03:52:42;;;;;;;11.63;5.18;;;;;;;;;;10362586;28;20141;-74
2022/04/21 03:57:47;;;;;;;9.25;5.00;;;;;;;;;;10362619;28;20397;-73
2022/04/21 04:02:48;;;;;;;12.43;5.93;;;;;;;;;;10364293;28;20052;-73
2022/04/21 04:13:16;;;;;;;13.30;5.75;;;;;;;;;;10360750;28;20904;-73
2022/04/21 04:18:18;;;;;;;13.93;6.53;;;;;;;;;;10359656;28;20053;-73
2022/04/21 04:23:21;;;;;;;12.98;6.63;;;;;;;;;;10360334;28;20102;-73
2022/04/21 04:28:23;;;;;;;26.05;7.57;;;;;;;;;;10359489;28;20049;-73
2022/04/21 04:33:25;;;;;;;16.52;6.50;;;;;;;;;;10366600;28;20042;-73
2022/04/21 04:38:26;;;;;;;13.23;6.72;;;;;;;;;;10367656;28;20051;-73
2022/04/21 04:43:28;;;;;;;11.35;5.95;;;;;;;;;;10376028;28;20042;-73
2022/04/21 04:48:29;;;;;;;13.20;6.40;;;;;;;;;;10348717;28;20046;-73
2022/04/21 04:53:32;;;;;;;13.07;6.60;;;;;;;;;;10361525;28;20521;-73
2022/04/21 04:58:36;;;;;;;14.65;6.25;;;;;;;;;;10354165;28;20080;-74
2022/04/21 05:03:39;;;;;;;20.23;7.90;;;;;;;;;;10360246;28;20832;-75
2022/04/21 05:08:40;;;;;;;25.70;9.35;;;;;;;;;;10367465;28;20500;-73
2022/04/21 05:13:42;;;;;;;18.25;7.85;;;;;;;;;;10363388;28;20041;-74
2022/04/21 05:18:44;;;;;;;15.10;6.03;;;;;;;;;;10371548;28;20049;-74
2022/04/21 05:23:49;;;;;;;12.73;6.85;;;;;;;;;;10375325;28;20573;-74
2022/04/21 05:28:55;;;;;;;14.30;6.47;;;;;;;;;;10377960;28;20054;-74
2022/04/21 05:34:01;;;;;;;13.93;6.55;;;;;;;;;;10363950;28;20038;-74
2022/04/21 05:39:03;;;;;;;15.50;6.97;;;;;;;;;;10367534;28;20759;-72
2022/04/21 05:44:06;;;;;;;12.70;6.57;;;;;;;;;;10367508;28;20041;-75
2022/04/21 05:49:07;;;;;;;16.42;7.05;;;;;;;;;;10369177;28;20065;-75
2022/04/21 05:54:10;;;;;;;19.15;6.45;;;;;;;;;;10356056;28;20037;-74
2022/04/21 05:59:12;;;;;;;13.38;5.70;;;;;;;;;;10368003;28;21058;-74
2022/04/21 06:04:13;;;;;;;12.98;5.40;;;;;;;;;;10361488;28;20133;-74
2022/04/21 06:09:15;;;;;;;11.65;6.32;;;;;;;;;;10365061;28;20055;-71
2022/04/21 06:14:16;;;;;;;14.05;5.57;;;;;;;;;;10372968;28;20042;-74
2022/04/21 06:19:18;;;;;;;10.43;5.68;;;;;;;;;;10366275;28;20050;-74
2022/04/21 06:24:19;;;;;;;10.73;5.63;;;;;;;;;;10366052;28;20038;-73
2022/04/21 06:29:20;;;;;;;11.23;5.65;;;;;;;;;;10374061;28;20042;-73
2022/04/21 06:34:22;;;;;;;11.88;5.82;;;;;;;;;;10371275;28;20465;-74
2022/04/21 06:39:23;;;;;;;15.35;5.55;;;;;;;;;;10355404;28;20444;-74
2022/04/21 06:49:46;;;;;;;9.80;5.13;;;;;;;;;;10358373;28;20041;-74
2022/04/21 06:54:47;;;;;;;9.23;4.35;;;;;;;;;;10333920;28;20236;-75
2022/04/21 06:59:49;;;;;;;8.50;4.07;;;;;;;;;;10339875;28;20038;-74
2022/04/21 07:04:53;;;;;;;7.30;3.90;;;;;;;;;;10329828;28;20045;-75
2022/04/21 07:09:56;;;;;;;8.73;4.00;;;;;;;10.24;nan;101189.00;10353700;28;20434;-74
2022/04/21 07:15:00;;;;;;;6.72;3.60;;;;;;;11.03;nan;101500.94;10352314;28;20078;-74
2022/04/21 07:20:05;;;;;;;6.32;3.30;;;;;;;11.83;nan;101838.84;10352317;28;20478;-74
2022/04/21 07:25:10;;;;;;;9.82;4.25;;;;;;;12.11;nan;101941.16;10356618;28;20045;-74
2022/04/21 07:30:12;;;;;;;11.32;3.95;;;;;;;12.64;nan;102156.34;10352198;28;20034;-74
2022/04/21 07:35:15;;;;;;;7.45;3.47;;;;;;;12.90;nan;102275.44;10356747;28;20056;-70
2022/04/21 07:40:18;;;;;;;9.13;3.78;;;;;;;13.47;nan;102508.75;10353157;28;20042;-71
2022/04/21 07:45:20;;;;;;;8.25;3.70;;;;;;;13.22;nan;102405.28;10359407;28;20064;-70
2022/04/21 07:50:24;;;;;;;9.70;3.60;;;;;;;13.81;nan;102646.75;10358999;28;20065;-70
2022/04/21 07:55:50;;;;;;;8.38;3.80;;;;;;;14.29;nan;102846.81;10354057;28;20045;-74
2022/04/21 08:00:54;;;;;;;7.38;3.47;;;;;;;13.79;nan;102651.03;10350429;28;20077;-70
2022/04/21 08:05:57;;;;;;;9.77;3.80;;;;;;;13.55;nan;102549.34;10358326;28;20050;-69
2022/04/21 08:10:59;;;;;;;9.35;3.45;;;;;;;13.59;nan;102561.78;10357315;28;20122;-69
2022/04/21 08:16:01;;;;;;;12.38;3.90;;;;;;;14.17;nan;102804.19;10358706;28;20050;-75
2022/04/21 08:21:03;;;;;;;8.38;3.28;;;;;;;14.89;nan;103100.25;10358919;28;20046;-73
2022/04/21 08:37:05;;;;;;;7.30;3.40;;;;;;;15.35;nan;103290.16;10358770;28;20413;-73
2022/04/21 08:42:10;;;;;;;8.90;3.20;;;;;;;15.56;nan;103374.56;10358606;28;20049;-74
2022/04/21 08:47:14;;;;;;;6.00;2.53;;;;;;;15.69;nan;103434.03;10351889;28;20050;-73
2022/04/21 08:52:17;;;;;;;6.90;2.50;;;;;;;15.79;nan;103460.84;10350403;28;20050;-73
2022/04/21 08:57:18;;;;;;;6.70;2.50;;;;;;;15.68;nan;103424.31;10354635;28;20049;-73
2022/04/21 09:02:20;;;;;;;5.53;2.30;;;;;;;14.99;nan;103131.38;10352340;28;20046;-73
2022/04/21 09:07:22;;;;;;;6.50;2.50;;;;;;;15.05;nan;103162.38;10356262;28;20694;-71
2022/04/21 09:12:24;;;;;;;7.15;2.72;;;;;;;14.74;nan;103025.03;10356126;28;20050;-73
2022/04/21 09:17:26;;;;;;;6.20;2.42;;;;;;;15.53;nan;103349.78;10360510;28;20425;-74
2022/04/21 09:22:32;;;;;;;5.60;2.40;;;;;;;16.04;nan;103557.81;10355982;28;20042;-70
2022/04/21 09:27:40;;;;;;;4.83;2.13;;;;;;;16.17;nan;103612.03;10349392;28;20049;-72
2022/04/21 09:32:53;;;;;;;7.97;2.45;;;;;;;16.61;nan;103790.06;10339123;28;20085;-71
2022/04/21 09:37:57;;;;;;;5.65;2.47;;;;;;;16.51;nan;103748.22;10348830;28;20045;-71
2022/04/21 09:43:03;;;;;;;5.25;2.30;;;;;;;16.51;nan;103746.47;10349999;28;20518;-70
2022/04/21 09:48:05;;;;;;;5.13;2.40;;;;;;;15.60;nan;103365.03;10351232;28;20041;-72
2022/04/21 09:53:07;;;;;;;5.60;2.60;;;;;;;15.49;nan;103308.28;10356630;28;20112;-70
2022/04/21 09:58:10;;;;;;;5.72;2.47;;;;;;;15.45;nan;103285.25;10350541;28;20097;-71
2022/04/21 10:03:12;;;;;;;8.73;2.83;;;;;;;16.04;nan;103523.44;10355583;28;20037;-71
2022/04/21 10:08:15;;;;;;;5.10;2.28;;;;;;;16.26;nan;103623.00;10350946;28;20417;-71
2022/04/21 10:13:19;;;;;;;9.55;2.17;;;;;;;16.66;nan;103788.50;10361334;28;20072;-71
2022/04/21 10:18:21;;;;;;;7.22;2.40;;;;;;;16.71;nan;103802.81;10361338;28;20046;-71
2022/04/21 10:23:26;;;;;;;7.22;2.85;;;;;;;16.44;nan;103695.09;10362002;28;20037;-71
2022/04/21 10:28:34;;;;;;;7.95;2.42;;;;;;;16.04;nan;103516.41;10357387;28;20421;-71
2022/04/21 10:34:02;;;;;;;6.65;2.53;;;;;;;16.25;nan;103597.38;10355901;28;20052;-71
2022/04/21 10:39:25;;;;;;;5.63;2.22;;;;;;;16.59;nan;103733.56;10362195;28;20073;-71
2022/04/21 10:44:27;;;;;;;6.93;2.67;;;;;;;16.60;nan;103736.28;10350945;28;20119;-71
2022/04/21 10:49:57;;;;;;;6.75;2.47;;;;;;;16.73;nan;103785.25;10361099;28;20053;-71
2022/04/21 11:00:42;;;;;;;5.97;2.58;;;;;;;16.73;nan;103774.66;10426648;28;19921;-72
2022/04/21 11:05:43;;;;;;;6.22;2.65;;;;;;;17.01;nan;103886.97;10368380;28;20598;-72
2022/04/21 11:10:45;;;;;;;6.43;2.60;;;;;;;17.20;nan;103961.81;10350413;28;20038;-72
2022/04/21 11:15:53;;;;;;;9.00;2.70;;;;;;;17.27;nan;103979.75;10352542;28;20073;-72
2022/04/21 11:21:29;;;;;;;5.88;2.50;;;;;;;17.34;nan;104010.97;10358222;28;20074;-72
2022/04/21 11:26:31;;;;;;;5.85;2.90;;;;;;;17.39;nan;104013.78;10362676;28;20052;-72
2022/04/21 11:31:33;;;;;;;8.80;2.92;;;;;;;17.23;nan;103957.53;10362252;28;20045;-72
2022/04/21 11:36:40;;;;;;;7.25;3.05;;;;;;;17.75;nan;104156.53;10362461;28;20065;-72
2022/04/21 11:41:44;;;;;;;6.25;2.72;;;;;;;18.09;nan;104303.75;10357019;28;20041;-72
2022/04/21 11:46:46;;;;;;;6.55;2.80;;;;;;;18.58;nan;104503.91;10365060;28;20536;-72
2022/04/21 11:51:53;;;;;;;9.38;2.80;;;;;;;18.89;nan;104621.22;10343936;28;20073;-72
2022/04/21 11:56:55;;;;;;;6.15;2.95;;;;;;;18.93;nan;104631.97;10357618;28;20048;-72
2022/04/21 12:07:18;;;;;;;7.28;3.00;;;;;;;17.45;nan;104001.66;10351221;28;20573;-72
2022/04/21 12:12:21;;;;;;;6.55;2.90;;;;;;;17.74;nan;104120.28;10355949;28;20116;-72
2022/04/21 12:17:22;;;;;;;7.85;3.03;;;;;;;17.95;nan;104200.69;10356950;28;20184;-72
2022/04/21 12:22:31;;;;;;;6.95;2.90;;;;;;;18.25;nan;104323.88;10350632;28;20043;-72
2022/04/21 12:27:36;;;;;;;4.47;2.40;;;;;;;18.34;nan;104354.31;10357546;28;20046;-72
2022/04/21 12:32:49;;;;;;;6.95;2.88;;;;;;;18.27;nan;104314.22;10343135;28;20053;-72
2022/04/21 12:38:50;;;;;;;8.45;2.72;;;;;;;18.83;nan;104541.28;10356328;28;20076;-73
2022/04/21 12:43:14;;;;;;;5.97;2.50;;;;;;;19.27;nan;104729.09;10355312;28;20128;-72
2022/04/21 12:48:23;;;;;;;7.20;2.40;;;;;;;19.13;nan;104656.78;10347907;28;20045;-72
2022/04/21 12:53:32;;;;;;;4.25;2.40;;;;;;;19.32;nan;104730.19;10352532;28;20113;-71
2022/04/21 12:58:34;;;;;;;6.03;2.80;;;;;;;19.83;nan;104945.09;10351100;28;20053;-65
2022/04/21 13:03:36;;;;;;;5.55;2.50;;;;;;;19.42;nan;104764.28;10352975;28;20061;-69
2022/04/21 13:08:38;;;;;;;5.32;2.75;;;;;;;19.28;nan;104693.72;10357901;28;20042;-69
2022/04/21 13:13:39;;;;;;;6.05;2.55;;;;;;;19.28;nan;104693.72;10355413;28;20088;-68
2022/04/21 13:18:41;;;;;;;15.15;2.70;;;;;;;19.48;nan;104768.97;10342681;28;20104;-70
2022/04/21 13:23:42;;;;;;;6.22;2.40;;;;;;;19.32;nan;104685.00;10351265;28;20046;-69
2022/04/21 13:28:44;;;;;;;6.95;2.50;;;;;;;19.17;nan;104625.09;10350679;28;20046;-69
2022/04/21 13:33:46;;;;;;;7.93;3.10;;;;;;;19.04;nan;104561.66;10363282;28;20069;-69
2022/04/21 13:38:53;;;;;;;9.98;3.13;;;;;;;18.98;nan;104534.84;10363469;28;20050;-69
2022/04/21 13:43:54;;;;;;;4.35;2.50;;;;;;;18.77;nan;104436.59;10362865;28;20549;-67
2022/04/21 13:49:16;;;;;;;6.80;2.65;;;;;;;18.48;nan;104309.81;10355721;28;20042;-67
2022/04/21 13:54:18;;;;;;;7.07;2.45;;;;;;;18.32;nan;104244.59;10352977;28;20034;-67
2022/04/21 13:59:21;;;;;;;5.72;2.22;;;;;;;18.24;nan;104200.03;10361992;28;20061;-69
2022/04/21 14:04:23;;;;;;;5.43;2.47;;;;;;;17.96;nan;104079.66;10361753;28;20041;-69
2022/04/21 14:09:24;;;;;;;5.53;2.17;;;;;;;17.59;nan;103916.53;10359684;28;20516;-69
2022/04/21 14:14:28;;;;;;;6.95;2.33;;;;;;;17.60;nan;103921.00;10354965;28;20038;-69
2022/04/21 14:19:29;;;;;;;9.43;2.25;;;;;;;17.52;nan;103882.69;10353881;28;20075;-69
2022/04/21 14:24:32;;;;;;;7.65;2.47;;;;;;;17.54;nan;103892.50;10349720;28;20358;-70
2022/04/21 14:29:34;;;;;;;8.55;2.70;;;;;;;17.46;nan;103852.50;10357937;28;20056;-72
2022/04/21 14:34:37;;;;;;;6.75;2.70;;;;;;;17.29;nan;103776.78;10358765;28;20041;-69
2022/04/21 14:44:59;;;;;;;4.90;2.50;;;;;;;17.13;nan;103702.09;10352856;28;20046;-71
2022/04/21 14:50:05;;;;;;;6.15;2.50;;;;;;;17.09;nan;103689.59;10355000;28;20046;-71
2022/04/21 14:55:07;;;;;;;5.10;2.22;;;;;;;16.93;nan;103602.53;10355834;28;20502;-70
2022/04/21 15:00:10;;;;;;;5.85;2.58;;;;;;;16.68;nan;103500.19;10359825;28;20046;-70
2022/04/21 15:05:11;;;;;;;13.38;2.58;;;;;;;16.68;nan;103501.09;10359980;28;20048;-69
2022/04/21 15:10:13;;;;;;;8.93;2.72;;;;;;;16.61;nan;103470.00;10359047;28;20065;-70
2022/04/21 15:15:14;;;;;;;5.32;2.05;;;;;;;16.70;nan;103493.22;10359528;28;20080;-70
2022/04/21 15:20:16;;;;;;;7.18;2.35;;;;;;;16.65;nan;103473.63;10359050;28;20073;-69
2022/04/21 15:25:18;;;;;;;12.85;2.47;;;;;;;16.66;nan;103470.16;10357700;28;20509;-69
2022/04/21 15:30:20;;;;;;;5.90;2.60;;;;;;;16.85;nan;103559.91;10358388;28;20046;-69
2022/04/21 15:35:26;;;;;;;6.30;2.50;;;;;;;16.85;nan;103546.66;10359200;28;20045;-72
2022/04/21 15:40:27;;;;;;;5.30;1.90;;;;;;;16.65;nan;103463.03;10358160;28;20081;-72
2022/04/21 15:45:29;;;;;;;6.70;1.80;;;;;;;16.49;nan;103393.75;10357570;28;20050;-72
2022/04/21 15:50:31;;;;;;;5.95;1.83;;;;;;;16.40;nan;103359.06;10357715;28;20046;-72
2022/04/21 16:00:53;;;;;;;4.88;1.90;;;;;;;16.33;nan;103312.13;10357903;28;20761;-70
2022/04/21 16:05:56;;;;;;;6.90;1.85;;;;;;;16.29;nan;103305.84;10344821;28;20038;-71
2022/04/21 16:10:58;;;;;;;5.07;1.95;;;;;;;16.29;nan;103299.63;10350729;28;20050;-71
2022/04/21 16:16:00;;;;;;;5.80;2.00;;;;;;;16.16;nan;103253.41;10356029;28;20497;-70
2022/04/21 16:21:01;;;;;;;3.75;1.50;;;;;;;16.10;nan;103210.91;10355682;28;20160;-70
2022/04/21 16:26:03;;;;;;;5.43;1.95;;;;;;;16.14;nan;103232.22;10348127;28;20040;-71
2022/04/21 16:31:05;;;;;;;5.25;1.95;;;;;;;16.11;nan;103217.97;10349927;28;20053;-69
2022/04/21 16:36:08;;;;;;;11.43;2.22;;;;;;;15.86;nan;103120.31;10356409;28;20046;-70
2022/04/21 16:41:10;;;;;;;6.57;1.98;;;;;;;15.79;nan;103089.25;10355980;28;20080;-71
2022/04/21 16:46:12;;;;;;;8.35;2.38;;;;;;;15.75;nan;103068.88;10356794;28;20556;-71
2022/04/21 16:51:15;;;;;;;10.52;2.13;;;;;;;15.50;nan;102961.56;10356755;28;20046;-72
2022/04/21 16:56:17;;;;;;;5.35;1.80;;;;;;;15.28;nan;102879.06;10346324;28;20556;-73
2022/04/21 17:06:39;;;;;;;11.45;2.45;;;;;;;15.10;nan;102801.94;10366238;28;20073;-73
2022/04/21 17:11:41;;;;;;;9.60;2.78;;;;;;;15.04;nan;102776.25;10372110;28;20066;-72
2022/04/21 17:16:44;;;;;;;10.45;2.55;;;;;;;15.01;nan;102756.00;10374011;28;20053;-73
2022/04/21 17:21:45;;;;;;;5.78;2.33;;;;;;;14.95;nan;102729.44;10376317;28;20038;-73
2022/04/21 17:26:47;;;;;;;6.50;2.40;;;;;;;14.78;nan;102662.09;10369719;28;20432;-73
2022/04/21 17:31:49;;;;;;;7.05;2.70;;;;;;;14.64;nan;102615.09;10377169;28;20121;-73
2022/04/21 17:36:50;;;;;;;7.93;2.20;;;;;;;14.51;nan;102552.28;10370462;28;20053;-73
2022/04/21 17:41:52;;;;;;;6.97;2.50;;;;;;;14.45;nan;102525.75;10364367;28;20077;-72
2022/04/21 17:46:55;;;;;;;4.88;2.00;;;;;;;14.43;nan;102520.44;10353845;28;20072;-72
2022/04/21 17:51:57;;;;;;;7.20;2.50;;;;;;;14.24;nan;102447.00;10361168;28;20037;-72
2022/04/21 17:56:58;;;;;;;7.03;2.60;;;;;;;14.15;nan;102411.63;10371442;28;20041;-73
2022/04/21 18:02:02;;;;;;;7.03;2.28;;;;;;;14.07;nan;102389.44;10365279;28;20053;-71
2022/04/21 18:07:04;;;;;;;7.22;2.63;;;;;;;13.98;nan;102347.06;10359902;28;20046;-72
2022/04/21 18:12:06;;;;;;;10.50;2.80;;;;;;;13.93;nan;102323.22;10369239;28;20041;-71
2022/04/21 18:17:08;;;;;;;11.82;2.85;;;;;;;13.85;nan;102285.25;10374549;28;20056;-72
2022/04/21 18:22:10;;;;;;;14.77;3.50;;;;;;;13.88;nan;102303.75;10372576;28;20052;-72
2022/04/21 18:27:12;;;;;;;7.20;2.60;;;;;;;13.75;nan;102246.34;10362765;28;20821;-72
2022/04/21 18:32:14;;;;;;;7.20;3.15;;;;;;;13.61;nan;102201.25;10368998;28;20042;-72
2022/04/21 18:37:15;;;;;;;9.07;3.47;;;;;;;13.45;nan;102128.91;10367035;28;20042;-73
2022/04/21 18:42:18;;;;;;;11.90;3.22;;;;;;;13.31;nan;102077.63;10356648;28;20049;-71
2022/04/21 18:47:20;;;;;;;9.43;3.40;;;;;;;13.18;nan;102024.69;10361529;28;20053;-72
2022/04/21 18:52:22;;;;;;;9.77;3.30;;;;;;;13.11;nan;101993.81;10365980;28;20049;-72
2022/04/21 18:58:22;;;;;;;9.15;3.85;;;;;;;13.02;nan;101964.66;10372752;28;20088;-72
2022/04/21 19:02:45;;;;;;;10.50;3.72;;;;;;;12.94;nan;101935.56;10360903;28;20030;-72
2022/04/21 19:07:47;;;;;;;9.23;3.70;;;;;;;12.84;nan;101894.09;10345371;28;20060;-72
2022/04/21 19:12:52;;;;;;;7.47;2.67;;;;;;;12.76;nan;101865.00;10357567;28;20141;-72
2022/04/21 19:17:53;;;;;;;10.55;3.28;;;;;;;12.60;nan;101805.03;10359908;28;20046;-72
2022/04/21 19:22:55;;;;;;;11.40;3.75;;;;;;;12.50;nan;101768.00;10361491;28;20076;-72
2022/04/21 19:28:00;;;;;;;8.45;3.38;;;;;;;12.37;nan;101719.53;10347971;28;20527;-72
2022/04/21 19:33:05;;;;;;;15.25;3.20;;;;;;;12.30;nan;101693.09;10367286;28;20030;-72
2022/04/21 19:38:07;;;;;;;9.35;3.20;;;;;;;12.25;nan;101663.19;10353397;28;20044;-72
2022/04/21 19:43:09;;;;;;;9.88;2.97;;;;;;;12.18;nan;101644.66;10366023;28;20129;-73
2022/04/21 19:48:11;;;;;;;12.25;4.20;;;;;;;12.08;nan;101600.66;10360248;28;20640;-73
2022/04/21 19:53:14;;;;;;;9.13;4.15;;;;;;;11.98;nan;101561.91;10363573;28;20070;-72
2022/04/21 19:58:15;;;;;;;12.77;3.72;;;;;;;11.87;nan;101519.66;10355867;28;20048;-73
2022/04/21 20:03:18;;;;;;;13.07;4.13;;;;;;;11.74;nan;101470.34;10367481;28;20041;-73
2022/04/21 20:13:40;;;;;;;10.57;4.05;;;;;;;11.54;nan;101391.22;10366278;28;20520;-73
2022/04/21 20:18:43;;;;;;;14.93;4.07;;;;;;;11.37;nan;101331.41;10365317;28;20041;-73
2022/04/21 20:23:45;;;;;;;12.27;4.28;;;;;;;11.30;nan;101306.78;10363470;28;20394;-73
2022/04/21 20:28:47;;;;;;;12.20;4.32;;;;;;;11.18;nan;101250.56;10358027;28;20485;-73
2022/04/21 20:33:49;;;;;;;10.85;4.35;;;;;;;11.06;nan;101209.25;10365290;28;20053;-73
2022/04/21 20:38:52;;;;;;;12.73;4.18;;;;;;;10.91;nan;101158.31;10365042;28;20037;-72
2022/04/21 20:43:54;;;;;;;10.93;4.60;;;;;;;10.87;nan;101134.59;10357276;28;20071;-73
2022/04/21 20:48:56;;;;;;;14.98;5.00;;;;;;;10.76;nan;101101.22;10362100;28;20033;-73
2022/04/21 20:53:58;;;;;;;10.95;4.60;;;;;;;10.68;nan;101073.97;10362322;28;20044;-73
2022/04/21 20:58:59;;;;;;;18.27;5.22;;;;;;;10.54;nan;101015.19;10363329;28;20160;-72
2022/04/21 21:04:01;;;;;;;13.57;5.28;;;;;;;10.58;nan;101037.97;10357993;28;20037;-72
2022/04/21 21:09:03;;;;;;;12.48;5.18;;;;;;;10.54;nan;101015.19;10365960;28;20048;-73
2022/04/21 21:14:05;;;;;;;13.13;5.15;;;;;;;10.49;nan;101003.72;10351190;28;20068;-72
2022/04/21 21:19:06;;;;;;;12.73;5.53;;;;;;;10.48;nan;101001.94;10361612;28;20053;-72
2022/04/21 21:24:11;;;;;;;14.02;4.75;;;;;;;10.44;nan;100986.19;10365273;28;20450;-72
2022/04/21 21:29:13;;;;;;;16.08;5.65;;;;;;;10.43;nan;100992.28;10355655;28;20045;-73
2022/04/21 21:34:15;;;;;;;17.63;5.43;;;;;;;10.39;nan;100968.63;10356193;28;20044;-72
2022/04/21 21:39:16;;;;;;;14.50;6.78;;;;;;;10.38;nan;100966.88;10364619;28;20041;-73
2022/04/21 21:44:18;;;;;;;14.18;5.47;;;;;;;10.37;nan;100965.09;10363759;28;20500;-73
2022/04/21 21:54:56;;;;;;;14.32;5.80;;;;;;;10.27;nan;100927.34;10337658;28;20046;-73
2022/04/21 21:59:58;;;;;;;16.33;6.38;;;;;;;10.27;nan;100937.81;10363607;28;20045;-73
2022/04/21 22:04:59;;;;;;;15.05;6.43;;;;;;;10.19;nan;100908.88;10367402;28;20049;-72
2022/04/21 22:10:02;;;;;;;15.52;6.43;;;;;;;10.16;nan;100897.44;10371072;28;20046;-72
2022/04/21 22:15:04;;;;;;;15.20;6.22;;;;;;;10.15;nan;100890.44;10365150;28;20053;-73
2022/04/21 22:20:08;;;;;;;12.70;5.95;;;;;;;10.07;nan;100867.66;10354660;28;20045;-72
2022/04/21 22:25:10;;;;;;;16.45;7.32;;;;;;;10.02;nan;100852.69;10355780;28;20038;-72
2022/04/21 22:30:12;;;;;;;11.55;6.03;;;;;;;10.04;nan;100864.97;10360265;28;20042;-72
2022/04/21 22:35:18;;;;;;;14.80;6.75;;;;;;;9.97;nan;100834.28;10352938;28;20046;-73
2022/04/21 22:40:20;;;;;;;18.08;7.32;;;;;;;9.94;nan;100818.53;10354818;28;20069;-73
2022/04/21 22:45:22;;;;;;;17.50;5.97;;;;;;;9.90;nan;100811.47;10354446;28;20429;-73
2022/04/21 22:50:25;;;;;;;17.48;6.15;;;;;;;9.84;nan;100799.16;10352963;28;20050;-72
2022/04/21 22:55:26;;;;;;;19.65;8.07;;;;;;;9.79;nan;100773.75;10358972;28;20053;-73
2022/04/21 23:00:28;;;;;;;18.00;7.45;;;;;;;9.74;nan;100752.75;10340410;28;20043;-73
2022/04/21 23:05:30;;;;;;;17.60;7.22;;;;;;;9.68;nan;100731.69;10345628;28;20046;-73
2022/04/21 23:15:52;;;;;;;18.67;6.53;;;;;;;9.55;nan;100689.63;10357566;28;20073;-73
2022/04/21 23:20:55;;;;;;;13.57;5.72;;;;;;;9.44;nan;100646.72;10352091;28;20065;-73
2022/04/21 23:25:56;;;;;;;15.25;6.60;;;;;;;9.33;nan;100609.91;10346838;28;20045;-73
2022/04/21 23:30:58;;;;;;;15.05;5.75;;;;;;;9.22;nan;100564.44;10351668;28;20046;-73
2022/04/21 23:36:00;;;;;;;14.23;6.78;;;;;;;9.14;nan;100540.78;10352542;28;20068;-73
2022/04/21 23:41:02;;;;;;;12.65;5.93;;;;;;;9.08;nan;100513.66;10358493;28;20081;-72
2022/04/21 23:46:03;;;;;;;21.75;8.77;;;;;;;9.05;nan;100506.63;10350586;28;20459;-72
2022/04/21 23:51:05;;;;;;;13.13;6.10;;;;;;;8.97;nan;100479.50;10353492;28;20038;-73
2022/04/21 23:56:10;;;;;;;15.57;6.70;;;;;;;8.85;nan;100431.41;10354116;28;20608;-73
